Ball, Louisiana
Current Conditions -  °F | °C
As of 9:53 PM on Friday 28 Nov 2014 (Local Time) from KESF Reporting Station
Clear Clear  
Wind Chill: 52°   Ceiling: Unl
Heat Index: 52°   Visibility: 10mi
Dew Point: 48°   Wind: 7mph
Humidity: 86%   Direction: 180°S
Pressure: 30.19"   Gusts: NA
Location:  31.42°N, 92.41°W
Report Text: KESF 290353Z AUTO 18006KT 10SM CLR 11/09 A3019 RMK AO2 SLP221 T01110089
Loading
Personal Weather Stations






























Interactive Weather Map New forecast layout! Learn more

10-Day Weather Forecast

Advertisements
Track Severe Weather on mobile